sensor_id;sensor_type;location;lat;lon;timestamp;temperature;humidity
51661;DHT22;37741;49.748;8.490;2023-02-13T00:02:02;6.00;88.10
51661;DHT22;37741;49.748;8.490;2023-02-13T00:04:27;6.00;88.20
51661;DHT22;37741;49.748;8.490;2023-02-13T00:06:53;6.00;88.20
51661;DHT22;37741;49.748;8.490;2023-02-13T00:09:18;6.00;88.20
51661;DHT22;37741;49.748;8.490;2023-02-13T00:11:44;6.00;88.30
51661;DHT22;37741;49.748;8.490;2023-02-13T00:14:09;6.00;88.30
51661;DHT22;37741;49.748;8.490;2023-02-13T00:16:35;5.90;88.30
51661;DHT22;37741;49.748;8.490;2023-02-13T00:19:01;5.90;88.30
51661;DHT22;37741;49.748;8.490;2023-02-13T00:21:26;5.90;88.40
51661;DHT22;37741;49.748;8.490;2023-02-13T00:23:52;5.90;88.30
51661;DHT22;37741;49.748;8.490;2023-02-13T00:26:18;5.90;88.40
51661;DHT22;37741;49.748;8.490;2023-02-13T00:28:44;5.90;88.50
51661;DHT22;37741;49.748;8.490;2023-02-13T00:31:12;5.80;88.40
51661;DHT22;37741;49.748;8.490;2023-02-13T00:33:39;5.80;88.40
51661;DHT22;37741;49.748;8.490;2023-02-13T00:36:10;5.80;88.50
51661;DHT22;37741;49.748;8.490;2023-02-13T00:38:38;5.80;88.50
51661;DHT22;37741;49.748;8.490;2023-02-13T00:41:04;5.80;88.40
51661;DHT22;37741;49.748;8.490;2023-02-13T00:43:30;5.80;88.50
51661;DHT22;37741;49.748;8.490;2023-02-13T00:45:56;5.80;88.40
51661;DHT22;37741;49.748;8.490;2023-02-13T00:48:23;5.80;88.50
51661;DHT22;37741;49.748;8.490;2023-02-13T00:50:49;5.70;88.40
51661;DHT22;37741;49.748;8.490;2023-02-13T00:53:17;5.70;88.40
51661;DHT22;37741;49.748;8.490;2023-02-13T00:55:43;5.70;88.40
51661;DHT22;37741;49.748;8.490;2023-02-13T00:58:09;5.70;88.40
51661;DHT22;37741;49.748;8.490;2023-02-13T01:00:34;5.70;88.40
51661;DHT22;37741;49.748;8.490;2023-02-13T01:03:00;5.70;88.50
51661;DHT22;37741;49.748;8.490;2023-02-13T01:05:26;5.70;88.40
51661;DHT22;37741;49.748;8.490;2023-02-13T01:07:52;5.70;88.50
51661;DHT22;37741;49.748;8.490;2023-02-13T01:10:18;5.70;88.50
51661;DHT22;37741;49.748;8.490;2023-02-13T01:12:44;5.60;88.50
51661;DHT22;37741;49.748;8.490;2023-02-13T01:15:10;5.60;88.60
51661;DHT22;37741;49.748;8.490;2023-02-13T01:17:36;5.60;88.50
51661;DHT22;37741;49.748;8.490;2023-02-13T01:20:07;5.60;88.60
51661;DHT22;37741;49.748;8.490;2023-02-13T01:22:33;5.60;88.60
51661;DHT22;37741;49.748;8.490;2023-02-13T01:24:58;5.50;88.60
51661;DHT22;37741;49.748;8.490;2023-02-13T01:27:25;5.60;88.70
51661;DHT22;37741;49.748;8.490;2023-02-13T01:29:51;5.50;88.60
51661;DHT22;37741;49.748;8.490;2023-02-13T01:32:17;5.50;88.60
51661;DHT22;37741;49.748;8.490;2023-02-13T01:34:42;5.50;88.70
51661;DHT22;37741;49.748;8.490;2023-02-13T01:37:08;5.50;88.70
51661;DHT22;37741;49.748;8.490;2023-02-13T01:39:33;5.50;88.70
51661;DHT22;37741;49.748;8.490;2023-02-13T01:41:59;5.40;88.70
51661;DHT22;37741;49.748;8.490;2023-02-13T01:47:42;5.40;88.70
51661;DHT22;37741;49.748;8.490;2023-02-13T01:50:33;5.40;88.70
51661;DHT22;37741;49.748;8.490;2023-02-13T01:53:07;5.40;88.80
51661;DHT22;37741;49.748;8.490;2023-02-13T01:55:42;5.40;88.80
51661;DHT22;37741;49.748;8.490;2023-02-13T01:58:12;5.40;88.80
51661;DHT22;37741;49.748;8.490;2023-02-13T02:00:41;5.40;88.80
51661;DHT22;37741;49.748;8.490;2023-02-13T02:03:17;5.30;88.80
51661;DHT22;37741;49.748;8.490;2023-02-13T02:05:43;5.30;88.80
51661;DHT22;37741;49.748;8.490;2023-02-13T02:08:12;5.30;88.80
51661;DHT22;37741;49.748;8.490;2023-02-13T02:10:39;5.30;88.90
51661;DHT22;37741;49.748;8.490;2023-02-13T02:13:09;5.30;88.80
51661;DHT22;37741;49.748;8.490;2023-02-13T02:15:36;5.30;88.90
51661;DHT22;37741;49.748;8.490;2023-02-13T02:18:02;5.30;88.90
51661;DHT22;37741;49.748;8.490;2023-02-13T02:26:18;5.30;88.90
51661;DHT22;37741;49.748;8.490;2023-02-13T02:28:57;5.20;88.90
51661;DHT22;37741;49.748;8.490;2023-02-13T02:34:55;5.20;88.90
51661;DHT22;37741;49.748;8.490;2023-02-13T02:40:19;5.20;88.90
51661;DHT22;37741;49.748;8.490;2023-02-13T02:46:14;5.20;89.00
51661;DHT22;37741;49.748;8.490;2023-02-13T02:51:34;5.10;89.00
51661;DHT22;37741;49.748;8.490;2023-02-13T02:56:58;5.10;89.10
51661;DHT22;37741;49.748;8.490;2023-02-13T02:59:27;5.10;89.10
51661;DHT22;37741;49.748;8.490;2023-02-13T03:02:29;5.10;89.10
51661;DHT22;37741;49.748;8.490;2023-02-13T03:05:23;5.10;89.10
51661;DHT22;37741;49.748;8.490;2023-02-13T03:08:10;5.00;89.10
51661;DHT22;37741;49.748;8.490;2023-02-13T03:10:37;5.00;89.10
51661;DHT22;37741;49.748;8.490;2023-02-13T03:13:41;5.00;89.20
51661;DHT22;37741;49.748;8.490;2023-02-13T03:16:15;5.00;89.20
51661;DHT22;37741;49.748;8.490;2023-02-13T03:19:01;5.00;89.20
51661;DHT22;37741;49.748;8.490;2023-02-13T03:21:50;5.00;89.20
51661;DHT22;37741;49.748;8.490;2023-02-13T03:30:32;4.90;89.20
51661;DHT22;37741;49.748;8.490;2023-02-13T03:37:10;4.90;89.20
51661;DHT22;37741;49.748;8.490;2023-02-13T03:42:47;4.80;89.20
51661;DHT22;37741;49.748;8.490;2023-02-13T03:45:21;4.80;89.20
51661;DHT22;37741;49.748;8.490;2023-02-13T03:48:08;4.80;89.20
51661;DHT22;37741;49.748;8.490;2023-02-13T03:50:56;4.80;89.20
51661;DHT22;37741;49.748;8.490;2023-02-13T03:53:23;4.80;89.30
51661;DHT22;37741;49.748;8.490;2023-02-13T03:55:50;4.80;89.80
51661;DHT22;37741;49.748;8.490;2023-02-13T03:58:41;4.80;89.30
51661;DHT22;37741;49.748;8.490;2023-02-13T04:01:28;4.80;89.30
51661;DHT22;37741;49.748;8.490;2023-02-13T04:04:09;4.70;89.20
51661;DHT22;37741;49.748;8.490;2023-02-13T04:06:57;4.80;89.30
51661;DHT22;37741;49.748;8.490;2023-02-13T04:09:25;4.70;89.20
51661;DHT22;37741;49.748;8.490;2023-02-13T04:14:24;4.80;89.20
51661;DHT22;37741;49.748;8.490;2023-02-13T04:16:58;4.70;89.10
51661;DHT22;37741;49.748;8.490;2023-02-13T04:19:27;4.70;89.10
51661;DHT22;37741;49.748;8.490;2023-02-13T04:21:57;4.70;89.10
51661;DHT22;37741;49.748;8.490;2023-02-13T04:24:24;4.70;89.10
51661;DHT22;37741;49.748;8.490;2023-02-13T04:26:51;4.70;89.10
51661;DHT22;37741;49.748;8.490;2023-02-13T04:29:19;4.70;89.10
51661;DHT22;37741;49.748;8.490;2023-02-13T04:31:45;4.60;89.00
51661;DHT22;37741;49.748;8.490;2023-02-13T04:34:11;4.70;89.00
51661;DHT22;37741;49.748;8.490;2023-02-13T04:36:36;4.70;89.00
51661;DHT22;37741;49.748;8.490;2023-02-13T04:39:02;4.60;89.00
51661;DHT22;37741;49.748;8.490;2023-02-13T04:41:28;4.60;89.00
51661;DHT22;37741;49.748;8.490;2023-02-13T04:43:53;4.60;89.00
51661;DHT22;37741;49.748;8.490;2023-02-13T04:46:19;4.60;89.00
51661;DHT22;37741;49.748;8.490;2023-02-13T04:48:44;4.60;88.90
51661;DHT22;37741;49.748;8.490;2023-02-13T04:51:10;4.60;88.90
51661;DHT22;37741;49.748;8.490;2023-02-13T04:53:35;4.60;88.90
51661;DHT22;37741;49.748;8.490;2023-02-13T04:56:01;4.60;88.90
51661;DHT22;37741;49.748;8.490;2023-02-13T04:58:27;4.60;88.90
51661;DHT22;37741;49.748;8.490;2023-02-13T05:00:52;4.50;88.80
51661;DHT22;37741;49.748;8.490;2023-02-13T05:03:18;4.50;88.80
51661;DHT22;37741;49.748;8.490;2023-02-13T05:05:43;4.50;88.80
51661;DHT22;37741;49.748;8.490;2023-02-13T05:08:09;4.50;88.80
51661;DHT22;37741;49.748;8.490;2023-02-13T05:10:35;4.50;88.80
51661;DHT22;37741;49.748;8.490;2023-02-13T05:13:01;4.50;88.80
51661;DHT22;37741;49.748;8.490;2023-02-13T05:15:27;4.50;88.80
51661;DHT22;37741;49.748;8.490;2023-02-13T05:17:53;4.40;88.70
51661;DHT22;37741;49.748;8.490;2023-02-13T05:20:19;4.50;88.80
51661;DHT22;37741;49.748;8.490;2023-02-13T05:22:51;4.50;88.80
51661;DHT22;37741;49.748;8.490;2023-02-13T05:25:55;4.40;88.80
51661;DHT22;37741;49.748;8.490;2023-02-13T05:28:21;4.40;88.70
51661;DHT22;37741;49.748;8.490;2023-02-13T05:31:05;4.40;88.70
51661;DHT22;37741;49.748;8.490;2023-02-13T05:33:31;4.40;88.70
51661;DHT22;37741;49.748;8.490;2023-02-13T05:35:56;4.40;88.70
51661;DHT22;37741;49.748;8.490;2023-02-13T05:38:22;4.40;88.60
51661;DHT22;37741;49.748;8.490;2023-02-13T05:40:48;4.40;88.60
51661;DHT22;37741;49.748;8.490;2023-02-13T05:43:13;4.30;88.60
51661;DHT22;37741;49.748;8.490;2023-02-13T05:45:39;4.30;88.60
51661;DHT22;37741;49.748;8.490;2023-02-13T05:48:04;4.30;88.60
51661;DHT22;37741;49.748;8.490;2023-02-13T05:50:30;4.30;88.60
51661;DHT22;37741;49.748;8.490;2023-02-13T05:52:55;4.30;88.50
51661;DHT22;37741;49.748;8.490;2023-02-13T05:55:21;4.30;88.60
51661;DHT22;37741;49.748;8.490;2023-02-13T05:57:47;4.30;88.60
51661;DHT22;37741;49.748;8.490;2023-02-13T06:00:13;4.20;88.50
51661;DHT22;37741;49.748;8.490;2023-02-13T06:02:38;4.30;88.50
51661;DHT22;37741;49.748;8.490;2023-02-13T06:05:04;4.20;88.50
51661;DHT22;37741;49.748;8.490;2023-02-13T06:07:30;4.20;88.50
51661;DHT22;37741;49.748;8.490;2023-02-13T06:09:55;4.20;88.50
51661;DHT22;37741;49.748;8.490;2023-02-13T06:12:24;4.20;88.50
51661;DHT22;37741;49.748;8.490;2023-02-13T06:14:49;4.20;88.50
51661;DHT22;37741;49.748;8.490;2023-02-13T06:17:15;4.20;88.40
51661;DHT22;37741;49.748;8.490;2023-02-13T06:19:40;4.20;88.50
51661;DHT22;37741;49.748;8.490;2023-02-13T06:22:06;4.10;88.40
51661;DHT22;37741;49.748;8.490;2023-02-13T06:24:31;4.20;88.40
51661;DHT22;37741;49.748;8.490;2023-02-13T06:26:57;4.10;88.40
51661;DHT22;37741;49.748;8.490;2023-02-13T06:29:23;4.10;88.30
51661;DHT22;37741;49.748;8.490;2023-02-13T06:31:48;4.10;88.30
51661;DHT22;37741;49.748;8.490;2023-02-13T06:34:14;4.10;88.30
51661;DHT22;37741;49.748;8.490;2023-02-13T06:36:39;4.10;88.30
51661;DHT22;37741;49.748;8.490;2023-02-13T06:39:08;4.10;88.30
51661;DHT22;37741;49.748;8.490;2023-02-13T06:41:35;4.10;88.30
51661;DHT22;37741;49.748;8.490;2023-02-13T06:44:00;4.00;88.20
51661;DHT22;37741;49.748;8.490;2023-02-13T06:46:26;4.00;88.20
51661;DHT22;37741;49.748;8.490;2023-02-13T06:48:51;4.00;88.20
51661;DHT22;37741;49.748;8.490;2023-02-13T06:51:17;4.00;88.20
51661;DHT22;37741;49.748;8.490;2023-02-13T06:53:43;4.00;88.20
51661;DHT22;37741;49.748;8.490;2023-02-13T06:56:08;4.00;88.10
51661;DHT22;37741;49.748;8.490;2023-02-13T06:58:35;4.00;88.10
51661;DHT22;37741;49.748;8.490;2023-02-13T07:01:03;3.90;88.10
51661;DHT22;37741;49.748;8.490;2023-02-13T07:03:29;3.90;88.10
51661;DHT22;37741;49.748;8.490;2023-02-13T07:05:54;3.90;88.00
51661;DHT22;37741;49.748;8.490;2023-02-13T07:08:21;3.90;88.10
51661;DHT22;37741;49.748;8.490;2023-02-13T07:10:46;3.90;88.10
51661;DHT22;37741;49.748;8.490;2023-02-13T07:13:12;3.90;88.00
51661;DHT22;37741;49.748;8.490;2023-02-13T07:15:38;3.90;88.10
51661;DHT22;37741;49.748;8.490;2023-02-13T07:18:04;3.80;88.00
51661;DHT22;37741;49.748;8.490;2023-02-13T07:20:30;3.80;88.00
51661;DHT22;37741;49.748;8.490;2023-02-13T07:23:00;3.80;88.00
51661;DHT22;37741;49.748;8.490;2023-02-13T07:25:26;3.80;88.00
51661;DHT22;37741;49.748;8.490;2023-02-13T07:27:52;3.80;88.00
51661;DHT22;37741;49.748;8.490;2023-02-13T07:30:18;3.80;88.00
51661;DHT22;37741;49.748;8.490;2023-02-13T07:32:44;3.80;88.00
51661;DHT22;37741;49.748;8.490;2023-02-13T07:35:09;3.80;88.00
51661;DHT22;37741;49.748;8.490;2023-02-13T07:37:35;3.80;88.00
51661;DHT22;37741;49.748;8.490;2023-02-13T07:40:01;3.70;88.00
51661;DHT22;37741;49.748;8.490;2023-02-13T07:42:31;3.70;88.00
51661;DHT22;37741;49.748;8.490;2023-02-13T07:44:56;3.70;88.00
51661;DHT22;37741;49.748;8.490;2023-02-13T07:47:23;3.70;88.00
51661;DHT22;37741;49.748;8.490;2023-02-13T07:49:48;3.70;88.00
51661;DHT22;37741;49.748;8.490;2023-02-13T07:52:14;3.70;88.00
51661;DHT22;37741;49.748;8.490;2023-02-13T07:54:40;3.70;88.10
51661;DHT22;37741;49.748;8.490;2023-02-13T07:57:12;3.70;88.00
51661;DHT22;37741;49.748;8.490;2023-02-13T07:59:38;3.70;88.00
51661;DHT22;37741;49.748;8.490;2023-02-13T08:02:03;3.70;88.00
51661;DHT22;37741;49.748;8.490;2023-02-13T08:04:29;3.60;88.60
51661;DHT22;37741;49.748;8.490;2023-02-13T08:06:55;3.60;88.00
51661;DHT22;37741;49.748;8.490;2023-02-13T08:09:20;3.60;88.00
51661;DHT22;37741;49.748;8.490;2023-02-13T08:12:07;3.60;88.10
51661;DHT22;37741;49.748;8.490;2023-02-13T08:14:33;3.60;88.20
51661;DHT22;37741;49.748;8.490;2023-02-13T08:16:59;3.60;88.20
51661;DHT22;37741;49.748;8.490;2023-02-13T08:19:27;3.60;88.20
51661;DHT22;37741;49.748;8.490;2023-02-13T08:21:53;3.50;88.20
51661;DHT22;37741;49.748;8.490;2023-02-13T08:24:19;3.50;88.30
51661;DHT22;37741;49.748;8.490;2023-02-13T08:26:45;3.50;88.30
51661;DHT22;37741;49.748;8.490;2023-02-13T08:29:10;3.50;88.30
51661;DHT22;37741;49.748;8.490;2023-02-13T08:31:36;3.50;88.40
51661;DHT22;37741;49.748;8.490;2023-02-13T08:34:02;3.50;88.40
51661;DHT22;37741;49.748;8.490;2023-02-13T08:36:27;3.50;88.40
51661;DHT22;37741;49.748;8.490;2023-02-13T08:38:53;3.50;88.40
51661;DHT22;37741;49.748;8.490;2023-02-13T08:41:19;3.50;88.40
51661;DHT22;37741;49.748;8.490;2023-02-13T08:43:47;3.50;88.40
51661;DHT22;37741;49.748;8.490;2023-02-13T08:46:12;3.50;88.50
51661;DHT22;37741;49.748;8.490;2023-02-13T08:48:38;3.50;88.50
51661;DHT22;37741;49.748;8.490;2023-02-13T08:51:08;3.50;88.50
51661;DHT22;37741;49.748;8.490;2023-02-13T08:53:35;3.50;88.50
51661;DHT22;37741;49.748;8.490;2023-02-13T08:56:00;3.50;88.60
51661;DHT22;37741;49.748;8.490;2023-02-13T08:58:26;3.50;89.20
51661;DHT22;37741;49.748;8.490;2023-02-13T09:00:52;3.50;88.60
51661;DHT22;37741;49.748;8.490;2023-02-13T09:03:18;3.50;88.60
51661;DHT22;37741;49.748;8.490;2023-02-13T09:05:44;3.50;88.60
51661;DHT22;37741;49.748;8.490;2023-02-13T09:08:09;3.50;88.60
51661;DHT22;37741;49.748;8.490;2023-02-13T09:10:38;3.50;88.60
51661;DHT22;37741;49.748;8.490;2023-02-13T09:13:04;3.50;88.60
51661;DHT22;37741;49.748;8.490;2023-02-13T09:15:30;3.50;88.50
51661;DHT22;37741;49.748;8.490;2023-02-13T09:17:56;3.50;88.50
51661;DHT22;37741;49.748;8.490;2023-02-13T09:20:22;3.50;88.50
51661;DHT22;37741;49.748;8.490;2023-02-13T09:22:47;3.50;88.50
51661;DHT22;37741;49.748;8.490;2023-02-13T09:25:13;3.50;88.80
51661;DHT22;37741;49.748;8.490;2023-02-13T09:27:38;3.50;89.40
51661;DHT22;37741;49.748;8.490;2023-02-13T09:30:08;3.60;89.20
51661;DHT22;37741;49.748;8.490;2023-02-13T09:32:35;3.50;89.40
51661;DHT22;37741;49.748;8.490;2023-02-13T09:35:03;3.60;89.20
51661;DHT22;37741;49.748;8.490;2023-02-13T09:37:31;3.60;89.10
51661;DHT22;37741;49.748;8.490;2023-02-13T09:39:56;3.60;89.00
51661;DHT22;37741;49.748;8.490;2023-02-13T09:42:28;3.60;88.90
51661;DHT22;37741;49.748;8.490;2023-02-13T09:44:59;3.60;88.80
51661;DHT22;37741;49.748;8.490;2023-02-13T09:47:42;3.60;88.70
51661;DHT22;37741;49.748;8.490;2023-02-13T09:50:24;3.60;89.50
51661;DHT22;37741;49.748;8.490;2023-02-13T09:52:53;3.60;90.20
51661;DHT22;37741;49.748;8.490;2023-02-13T09:55:46;3.60;89.90
51661;DHT22;37741;49.748;8.490;2023-02-13T09:58:48;3.60;89.40
51661;DHT22;37741;49.748;8.490;2023-02-13T10:01:38;3.60;89.20
51661;DHT22;37741;49.748;8.490;2023-02-13T10:17:25;3.80;91.90
51661;DHT22;37741;49.748;8.490;2023-02-13T10:19:57;3.80;91.60
51661;DHT22;37741;49.748;8.490;2023-02-13T10:22:34;3.90;91.60
51661;DHT22;37741;49.748;8.490;2023-02-13T10:25:12;3.90;91.70
51661;DHT22;37741;49.748;8.490;2023-02-13T10:27:46;3.90;91.90
51661;DHT22;37741;49.748;8.490;2023-02-13T10:30:19;3.90;91.90
51661;DHT22;37741;49.748;8.490;2023-02-13T10:35:30;4.00;91.80
51661;DHT22;37741;49.748;8.490;2023-02-13T10:37:58;4.00;91.50
51661;DHT22;37741;49.748;8.490;2023-02-13T10:40:30;4.00;92.10
51661;DHT22;37741;49.748;8.490;2023-02-13T10:43:07;4.10;92.40
51661;DHT22;37741;49.748;8.490;2023-02-13T10:51:23;4.20;91.90
51661;DHT22;37741;49.748;8.490;2023-02-13T10:56:24;4.20;90.70
51661;DHT22;37741;49.748;8.490;2023-02-13T11:01:50;4.30;90.40
51661;DHT22;37741;49.748;8.490;2023-02-13T11:04:18;4.30;91.30
51661;DHT22;37741;49.748;8.490;2023-02-13T11:09:23;4.40;91.80
51661;DHT22;37741;49.748;8.490;2023-02-13T11:11:49;4.40;91.90
51661;DHT22;37741;49.748;8.490;2023-02-13T11:14:24;4.40;91.40
51661;DHT22;37741;49.748;8.490;2023-02-13T11:16:55;4.40;90.30
51661;DHT22;37741;49.748;8.490;2023-02-13T11:22:12;4.50;90.30
51661;DHT22;37741;49.748;8.490;2023-02-13T11:24:40;4.40;90.00
51661;DHT22;37741;49.748;8.490;2023-02-13T11:27:09;4.50;89.70
51661;DHT22;37741;49.748;8.490;2023-02-13T11:32:20;4.50;90.60
51661;DHT22;37741;49.748;8.490;2023-02-13T11:34:48;4.50;90.00
51661;DHT22;37741;49.748;8.490;2023-02-13T11:39:50;4.60;90.60
51661;DHT22;37741;49.748;8.490;2023-02-13T11:45:22;4.70;90.50
51661;DHT22;37741;49.748;8.490;2023-02-13T11:47:49;4.70;90.50
51661;DHT22;37741;49.748;8.490;2023-02-13T11:52:58;4.80;90.60
51661;DHT22;37741;49.748;8.490;2023-02-13T11:55:31;4.80;90.40
51661;DHT22;37741;49.748;8.490;2023-02-13T11:58:22;4.90;90.00
51661;DHT22;37741;49.748;8.490;2023-02-13T12:00:48;4.90;90.20
51661;DHT22;37741;49.748;8.490;2023-02-13T12:03:32;4.90;89.20
51661;DHT22;37741;49.748;8.490;2023-02-13T12:08:38;5.10;90.80
51661;DHT22;37741;49.748;8.490;2023-02-13T12:11:21;5.10;90.90
51661;DHT22;37741;49.748;8.490;2023-02-13T12:13:48;5.20;89.50
51661;DHT22;37741;49.748;8.490;2023-02-13T12:16:29;5.20;90.20
51661;DHT22;37741;49.748;8.490;2023-02-13T12:18:58;5.20;89.90
51661;DHT22;37741;49.748;8.490;2023-02-13T12:21:47;5.30;90.30
51661;DHT22;37741;49.748;8.490;2023-02-13T12:24:52;5.40;90.00
51661;DHT22;37741;49.748;8.490;2023-02-13T12:27:38;5.40;88.50
51661;DHT22;37741;49.748;8.490;2023-02-13T12:38:44;5.70;90.10
51661;DHT22;37741;49.748;8.490;2023-02-13T12:49:32;6.00;88.80
51661;DHT22;37741;49.748;8.490;2023-02-13T12:52:12;6.10;89.50
51661;DHT22;37741;49.748;8.490;2023-02-13T12:57:17;6.10;85.90
51661;DHT22;37741;49.748;8.490;2023-02-13T13:21:45;6.30;86.10
51661;DHT22;37741;49.748;8.490;2023-02-13T13:24:59;6.40;87.10
51661;DHT22;37741;49.748;8.490;2023-02-13T13:26:59;6.50;86.80
51661;DHT22;37741;49.748;8.490;2023-02-13T13:29:57;6.60;85.90
51661;DHT22;37741;49.748;8.490;2023-02-13T13:32:21;6.60;86.10
51661;DHT22;37741;49.748;8.490;2023-02-13T13:34:47;6.70;85.00
51661;DHT22;37741;49.748;8.490;2023-02-13T13:37:25;6.70;84.80
51661;DHT22;37741;49.748;8.490;2023-02-13T13:43:03;6.70;85.40
51661;DHT22;37741;49.748;8.490;2023-02-13T13:45:56;6.80;84.70
51661;DHT22;37741;49.748;8.490;2023-02-13T13:51:12;6.80;84.00
51661;DHT22;37741;49.748;8.490;2023-02-13T13:59:24;6.90;84.10
51661;DHT22;37741;49.748;8.490;2023-02-13T14:05:02;6.90;83.70
51661;DHT22;37741;49.748;8.490;2023-02-13T14:07:36;6.90;83.60
51661;DHT22;37741;49.748;8.490;2023-02-13T14:10:04;7.00;84.40
51661;DHT22;37741;49.748;8.490;2023-02-13T14:14:56;7.00;85.00
51661;DHT22;37741;49.748;8.490;2023-02-13T14:25:41;7.30;84.10
51661;DHT22;37741;49.748;8.490;2023-02-13T14:28:22;7.40;83.70
51661;DHT22;37741;49.748;8.490;2023-02-13T14:30:49;7.40;83.50
51661;DHT22;37741;49.748;8.490;2023-02-13T14:33:27;7.40;83.70
51661;DHT22;37741;49.748;8.490;2023-02-13T14:36:07;7.40;82.80
51661;DHT22;37741;49.748;8.490;2023-02-13T14:38:34;7.50;82.80
51661;DHT22;37741;49.748;8.490;2023-02-13T14:41:01;7.50;83.20
51661;DHT22;37741;49.748;8.490;2023-02-13T14:43:33;7.60;83.40
51661;DHT22;37741;49.748;8.490;2023-02-13T14:51:04;7.60;82.10
51661;DHT22;37741;49.748;8.490;2023-02-13T14:53:46;7.60;82.20
51661;DHT22;37741;49.748;8.490;2023-02-13T14:56:17;7.70;82.80
51661;DHT22;37741;49.748;8.490;2023-02-13T14:59:00;7.70;82.80
51661;DHT22;37741;49.748;8.490;2023-02-13T15:01:40;7.80;83.60
51661;DHT22;37741;49.748;8.490;2023-02-13T15:04:21;7.80;81.70
51661;DHT22;37741;49.748;8.490;2023-02-13T15:06:52;7.90;82.00
51661;DHT22;37741;49.748;8.490;2023-02-13T15:09:34;7.90;81.80
51661;DHT22;37741;49.748;8.490;2023-02-13T15:12:03;7.90;82.00
51661;DHT22;37741;49.748;8.490;2023-02-13T15:14:36;8.00;82.30
51661;DHT22;37741;49.748;8.490;2023-02-13T15:17:14;8.00;82.10
51661;DHT22;37741;49.748;8.490;2023-02-13T15:19:50;8.00;81.50
51661;DHT22;37741;49.748;8.490;2023-02-13T15:22:20;8.10;81.50
51661;DHT22;37741;49.748;8.490;2023-02-13T15:24:48;8.00;81.20
51661;DHT22;37741;49.748;8.490;2023-02-13T15:27:25;8.10;81.30
51661;DHT22;37741;49.748;8.490;2023-02-13T15:29:58;8.10;82.40
51661;DHT22;37741;49.748;8.490;2023-02-13T15:32:33;8.20;81.50
51661;DHT22;37741;49.748;8.490;2023-02-13T15:34:59;8.20;81.40
51661;DHT22;37741;49.748;8.490;2023-02-13T15:37:29;8.20;81.00
51661;DHT22;37741;49.748;8.490;2023-02-13T15:39:55;8.20;81.60
51661;DHT22;37741;49.748;8.490;2023-02-13T15:42:38;8.30;80.80
51661;DHT22;37741;49.748;8.490;2023-02-13T15:45:04;8.30;80.70
51661;DHT22;37741;49.748;8.490;2023-02-13T15:47:31;8.40;80.50
51661;DHT22;37741;49.748;8.490;2023-02-13T15:49:58;8.30;80.70
51661;DHT22;37741;49.748;8.490;2023-02-13T15:52:32;8.40;81.10
51661;DHT22;37741;49.748;8.490;2023-02-13T15:54:59;8.40;80.30
51661;DHT22;37741;49.748;8.490;2023-02-13T15:57:25;8.40;80.40
51661;DHT22;37741;49.748;8.490;2023-02-13T15:59:53;8.40;80.50
51661;DHT22;37741;49.748;8.490;2023-02-13T16:02:41;8.40;81.00
51661;DHT22;37741;49.748;8.490;2023-02-13T16:05:10;8.40;81.60
51661;DHT22;37741;49.748;8.490;2023-02-13T16:07:54;8.40;80.50
51661;DHT22;37741;49.748;8.490;2023-02-13T16:10:27;8.40;80.90
51661;DHT22;37741;49.748;8.490;2023-02-13T16:12:55;8.40;81.20
51661;DHT22;37741;49.748;8.490;2023-02-13T16:15:22;8.40;80.50
51661;DHT22;37741;49.748;8.490;2023-02-13T16:17:48;8.40;80.60
51661;DHT22;37741;49.748;8.490;2023-02-13T16:20:24;8.40;80.50
51661;DHT22;37741;49.748;8.490;2023-02-13T16:23:15;8.50;80.90
51661;DHT22;37741;49.748;8.490;2023-02-13T16:25:41;8.50;80.90
51661;DHT22;37741;49.748;8.490;2023-02-13T16:28:23;8.50;80.80
51661;DHT22;37741;49.748;8.490;2023-02-13T16:31:03;8.40;80.30
51661;DHT22;37741;49.748;8.490;2023-02-13T16:33:30;8.50;81.00
51661;DHT22;37741;49.748;8.490;2023-02-13T16:35:57;8.50;80.70
51661;DHT22;37741;49.748;8.490;2023-02-13T16:38:33;8.50;80.50
51661;DHT22;37741;49.748;8.490;2023-02-13T16:41:02;8.40;80.40
51661;DHT22;37741;49.748;8.490;2023-02-13T16:43:46;8.40;80.60
51661;DHT22;37741;49.748;8.490;2023-02-13T16:51:13;8.30;81.20
51661;DHT22;37741;49.748;8.490;2023-02-13T16:53:39;8.30;81.30
51661;DHT22;37741;49.748;8.490;2023-02-13T16:56:08;8.30;81.30
51661;DHT22;37741;49.748;8.490;2023-02-13T16:58:35;8.20;81.30
51661;DHT22;37741;49.748;8.490;2023-02-13T17:01:02;8.20;81.40
51661;DHT22;37741;49.748;8.490;2023-02-13T17:03:35;8.20;81.30
51661;DHT22;37741;49.748;8.490;2023-02-13T17:06:01;8.20;81.40
51661;DHT22;37741;49.748;8.490;2023-02-13T17:08:29;8.20;81.20
51661;DHT22;37741;49.748;8.490;2023-02-13T17:11:16;8.20;81.40
51661;DHT22;37741;49.748;8.490;2023-02-13T17:13:43;8.10;81.50
51661;DHT22;37741;49.748;8.490;2023-02-13T17:16:08;8.10;81.70
51661;DHT22;37741;49.748;8.490;2023-02-13T17:18:34;8.10;81.90
51661;DHT22;37741;49.748;8.490;2023-02-13T17:21:00;8.00;81.90
51661;DHT22;37741;49.748;8.490;2023-02-13T17:23:25;8.10;82.00
51661;DHT22;37741;49.748;8.490;2023-02-13T17:25:52;8.00;82.10
51661;DHT22;37741;49.748;8.490;2023-02-13T17:28:22;8.00;81.50
51661;DHT22;37741;49.748;8.490;2023-02-13T17:30:50;8.00;81.90
51661;DHT22;37741;49.748;8.490;2023-02-13T17:33:23;8.00;82.10
51661;DHT22;37741;49.748;8.490;2023-02-13T17:35:50;7.90;82.30
51661;DHT22;37741;49.748;8.490;2023-02-13T17:38:15;7.90;82.50
51661;DHT22;37741;49.748;8.490;2023-02-13T17:40:42;7.90;82.70
51661;DHT22;37741;49.748;8.490;2023-02-13T17:43:13;7.90;82.50
51661;DHT22;37741;49.748;8.490;2023-02-13T17:45:39;7.80;82.40
51661;DHT22;37741;49.748;8.490;2023-02-13T17:48:05;7.80;82.50
51661;DHT22;37741;49.748;8.490;2023-02-13T17:50:32;7.80;82.50
51661;DHT22;37741;49.748;8.490;2023-02-13T17:53:04;7.80;82.60
51661;DHT22;37741;49.748;8.490;2023-02-13T17:55:31;7.80;82.50
51661;DHT22;37741;49.748;8.490;2023-02-13T17:57:58;7.80;82.50
51661;DHT22;37741;49.748;8.490;2023-02-13T18:00:26;7.70;82.60
51661;DHT22;37741;49.748;8.490;2023-02-13T18:02:52;7.70;82.50
51661;DHT22;37741;49.748;8.490;2023-02-13T18:05:19;7.70;82.60
51661;DHT22;37741;49.748;8.490;2023-02-13T18:07:45;7.70;82.50
51661;DHT22;37741;49.748;8.490;2023-02-13T18:10:17;7.70;82.60
51661;DHT22;37741;49.748;8.490;2023-02-13T18:12:43;7.70;82.60
51661;DHT22;37741;49.748;8.490;2023-02-13T18:15:10;7.70;82.50
51661;DHT22;37741;49.748;8.490;2023-02-13T18:17:36;7.60;82.50
51661;DHT22;37741;49.748;8.490;2023-02-13T18:20:03;7.60;82.50
51661;DHT22;37741;49.748;8.490;2023-02-13T18:22:29;7.60;82.50
51661;DHT22;37741;49.748;8.490;2023-02-13T18:24:54;7.60;82.40
51661;DHT22;37741;49.748;8.490;2023-02-13T18:27:20;7.60;82.50
51661;DHT22;37741;49.748;8.490;2023-02-13T18:29:47;7.60;82.50
51661;DHT22;37741;49.748;8.490;2023-02-13T18:32:13;7.50;82.40
51661;DHT22;37741;49.748;8.490;2023-02-13T18:34:39;7.50;82.50
51661;DHT22;37741;49.748;8.490;2023-02-13T18:37:05;7.50;82.50
51661;DHT22;37741;49.748;8.490;2023-02-13T18:39:31;7.50;82.50
51661;DHT22;37741;49.748;8.490;2023-02-13T18:41:57;7.50;82.60
51661;DHT22;37741;49.748;8.490;2023-02-13T18:44:22;7.40;82.60
51661;DHT22;37741;49.748;8.490;2023-02-13T18:46:48;7.40;82.60